Time;durP1;ratioP1;P1;durP2;ratioP2;P2;SDS_P1;SDS_P2;PMS_P1;PMS_P2;Temp;Humidity;BMP_temperature;BMP_pressure;BME280_temperature;BME280_humidity;BME280_pressure;Samples;Min_cycle;Max_cycle;Signal;HPM_P1;HPM_P2
2022/06/16 00:01:07;;;;;;;4.50;3.53;;;15.40;70.80;;;;;;5093392;28;20446;-61
2022/06/16 00:03:35;;;;;;;5.63;3.73;;;15.40;71.10;;;;;;5093375;28;20457;-63
2022/06/16 00:06:02;;;;;;;4.70;3.47;;;15.30;71.20;;;;;;5095801;28;20458;-61
2022/06/16 00:08:29;;;;;;;7.00;3.80;;;15.30;71.40;;;;;;5096961;28;20492;-61
2022/06/16 00:13:44;;;;;;;6.10;3.60;;;15.30;71.90;;;;;;5094673;28;20401;-60
2022/06/16 00:16:12;;;;;;;4.33;3.53;;;15.30;72.10;;;;;;5093681;28;20545;-62
2022/06/16 00:18:40;;;;;;;5.10;3.83;;;15.20;72.20;;;;;;5093562;28;20797;-62
2022/06/16 00:21:08;;;;;;;3.80;3.50;;;15.20;72.50;;;;;;5093276;28;20875;-61
2022/06/16 00:23:36;;;;;;;5.00;3.30;;;15.10;72.80;;;;;;5093250;28;20446;-61
2022/06/16 00:26:04;;;;;;;5.03;3.87;;;15.10;73.00;;;;;;5096166;28;20996;-62
2022/06/16 00:28:31;;;;;;;4.07;3.67;;;15.10;73.30;;;;;;5097583;28;20481;-62
2022/06/16 00:31:04;;;;;;;5.70;3.60;;;15.00;73.50;;;;;;5097526;28;20457;-62
2022/06/16 00:33:32;;;;;;;6.20;3.97;;;15.00;74.00;;;;;;5099579;28;20469;-62
2022/06/16 00:35:59;;;;;;;5.60;4.10;;;14.90;74.40;;;;;;5102581;28;20517;-62
2022/06/16 00:38:27;;;;;;;4.97;3.97;;;14.90;74.60;;;;;;5100269;28;20456;-62
2022/06/16 00:40:55;;;;;;;4.77;4.17;;;14.90;75.00;;;;;;5101617;28;20454;-62
2022/06/16 00:43:23;;;;;;;5.27;3.50;;;14.90;75.20;;;;;;5100090;28;20453;-62
2022/06/16 00:45:55;;;;;;;6.67;4.10;;;14.80;75.40;;;;;;5099241;28;20505;-63
2022/06/16 00:48:28;;;;;;;4.77;3.70;;;14.80;75.80;;;;;;5098748;28;20433;-62
2022/06/16 00:51:01;;;;;;;5.97;3.63;;;14.80;76.10;;;;;;5099117;28;20763;-62
2022/06/16 00:53:30;;;;;;;6.40;4.30;;;14.80;76.50;;;;;;5098830;28;20440;-62
2022/06/16 00:55:58;;;;;;;4.43;4.03;;;14.70;76.90;;;;;;5097984;28;20486;-61
2022/06/16 00:58:26;;;;;;;4.37;3.10;;;14.70;77.20;;;;;;5097711;28;20870;-62
2022/06/16 01:00:54;;;;;;;6.80;4.07;;;14.70;77.40;;;;;;5097425;28;20820;-62
2022/06/16 01:06:19;;;;;;;3.90;3.50;;;14.70;77.70;;;;;;5095855;28;20964;-62
2022/06/16 01:08:47;;;;;;;4.00;3.70;;;14.70;78.10;;;;;;5096663;28;20429;-62
2022/06/16 01:14:07;;;;;;;5.53;4.03;;;14.70;78.80;;;;;;5095142;28;20409;-62
2022/06/16 01:16:41;;;;;;;4.40;3.53;;;14.70;79.20;;;;;;5096805;28;20924;-61
2022/06/16 01:19:24;;;;;;;4.40;4.00;;;14.60;79.20;;;;;;5096758;28;20462;-62
2022/06/16 01:21:59;;;;;;;3.97;3.60;;;14.60;79.80;;;;;;5096674;28;20425;-61
2022/06/16 01:24:50;;;;;;;4.17;3.53;;;14.50;80.10;;;;;;5096704;28;21011;-61
2022/06/16 01:27:50;;;;;;;4.07;3.50;;;14.50;80.50;;;;;;5096524;28;20562;-62
2022/06/16 01:30:23;;;;;;;7.87;3.67;;;14.50;80.80;;;;;;5096328;28;20967;-62
2022/06/16 01:32:56;;;;;;;6.30;3.43;;;14.40;81.00;;;;;;5096550;28;20430;-62
2022/06/16 01:35:34;;;;;;;4.00;3.33;;;14.40;81.40;;;;;;5096043;28;20481;-62
2022/06/16 01:38:08;;;;;;;3.67;3.00;;;14.30;81.70;;;;;;5095329;28;20457;-62
2022/06/16 01:40:41;;;;;;;4.47;3.97;;;14.30;82.00;;;;;;5098572;28;20448;-62
2022/06/16 01:43:16;;;;;;;3.40;3.10;;;14.30;82.90;;;;;;5099796;28;20902;-62
2022/06/16 01:45:51;;;;;;;4.50;3.50;;;14.20;82.60;;;;;;5100162;28;20476;-62
2022/06/16 01:48:21;;;;;;;6.13;3.43;;;14.20;83.00;;;;;;5099274;28;20464;-62
2022/06/16 01:50:52;;;;;;;4.80;4.30;;;14.20;83.30;;;;;;5097251;28;20506;-62
2022/06/16 01:53:27;;;;;;;6.20;3.40;;;14.20;83.60;;;;;;5101350;28;20438;-62
2022/06/16 01:56:06;;;;;;;4.00;3.63;;;14.20;83.80;;;;;;5101020;28;20895;-62
2022/06/16 01:58:37;;;;;;;6.20;4.20;;;14.10;84.10;;;;;;5098780;28;20476;-62
2022/06/16 02:01:11;;;;;;;3.83;3.30;;;14.10;84.40;;;;;;5098533;28;20445;-62
2022/06/16 02:03:43;;;;;;;5.47;4.00;;;14.10;84.70;;;;;;5097639;28;20432;-61
2022/06/16 02:06:15;;;;;;;5.20;4.00;;;14.10;85.00;;;;;;5097087;28;20490;-62
2022/06/16 02:08:47;;;;;;;4.13;3.67;;;14.10;85.50;;;;;;5096595;28;20831;-61
2022/06/16 02:11:21;;;;;;;5.27;3.93;;;14.10;86.00;;;;;;5096182;28;20437;-62
2022/06/16 02:13:53;;;;;;;12.00;3.70;;;14.10;86.50;;;;;;5095947;28;20811;-63
2022/06/16 02:16:25;;;;;;;4.00;3.70;;;14.10;86.80;;;;;;5096706;28;20501;-62
2022/06/16 02:18:54;;;;;;;6.73;3.60;;;14.00;87.10;;;;;;5096795;28;20441;-62
2022/06/16 02:21:27;;;;;;;6.50;4.13;;;14.00;87.30;;;;;;5095263;28;20449;-62
2022/06/16 02:23:57;;;;;;;5.57;4.57;;;14.00;87.60;;;;;;5095247;28;20522;-62
2022/06/16 02:26:25;;;;;;;5.33;3.97;;;14.00;88.00;;;;;;5095657;28;20967;-62
2022/06/16 02:28:54;;;;;;;8.20;4.77;;;13.90;88.10;;;;;;5095114;28;21030;-62
2022/06/16 02:31:46;;;;;;;5.50;3.80;;;13.90;88.60;;;;;;5094956;28;20443;-62
2022/06/16 02:34:23;;;;;;;4.30;3.83;;;13.80;89.50;;;;;;5095060;28;20469;-62
2022/06/16 02:37:09;;;;;;;5.30;3.90;;;13.80;90.00;;;;;;5094811;28;20476;-62
2022/06/16 02:39:47;;;;;;;6.90;4.47;;;13.80;90.30;;;;;;5094743;28;20443;-61
2022/06/16 02:42:24;;;;;;;5.70;3.90;;;13.80;90.50;;;;;;5094638;28;20479;-61
2022/06/16 02:45:02;;;;;;;5.80;4.20;;;13.70;90.50;;;;;;5094648;28;20461;-62
2022/06/16 02:47:48;;;;;;;5.87;4.37;;;13.70;90.60;;;;;;5094985;28;20952;-62
2022/06/16 02:50:24;;;;;;;4.40;3.73;;;13.70;90.80;;;;;;5095283;28;20851;-62
2022/06/16 02:53:01;;;;;;;6.00;4.33;;;13.70;91.00;;;;;;5098477;28;20485;-62
2022/06/16 02:55:34;;;;;;;5.80;4.57;;;13.70;91.10;;;;;;5100257;28;20510;-61
2022/06/16 02:58:03;;;;;;;6.97;4.10;;;13.70;91.30;;;;;;5097879;28;20430;-62
2022/06/16 03:00:41;;;;;;;5.57;4.40;;;13.70;91.50;;;;;;5094260;28;20937;-63
2022/06/16 03:03:28;;;;;;;5.40;4.13;;;13.70;91.70;;;;;;5094239;28;20917;-61
2022/06/16 03:05:58;;;;;;;5.07;4.30;;;13.70;91.70;;;;;;5094120;28;20457;-61
2022/06/16 03:08:29;;;;;;;3.67;3.33;;;13.70;91.90;;;;;;5094107;28;20445;-61
2022/06/16 03:10:58;;;;;;;7.90;4.70;;;13.70;92.00;;;;;;5094734;28;20430;-63
2022/06/16 03:13:29;;;;;;;6.03;4.27;;;13.60;92.10;;;;;;5094288;28;20449;-62
2022/06/16 03:15:58;;;;;;;7.30;4.07;;;13.70;92.20;;;;;;5094131;28;20485;-62
2022/06/16 03:18:27;;;;;;;5.70;3.90;;;13.70;92.30;;;;;;5094099;28;20502;-62
2022/06/16 03:20:54;;;;;;;5.93;4.60;;;13.70;92.30;;;;;;5093932;28;20493;-62
2022/06/16 03:23:22;;;;;;;5.60;4.20;;;13.70;92.40;;;;;;5094279;28;20822;-61
2022/06/16 03:25:49;;;;;;;4.13;3.73;;;13.70;92.40;;;;;;5118034;22;20488;-60
2022/06/16 03:28:17;;;;;;;6.20;4.50;;;13.70;92.50;;;;;;5093882;28;20906;-58
2022/06/16 03:30:44;;;;;;;4.40;3.83;;;13.60;92.60;;;;;;5093795;28;20533;-59
2022/06/16 03:33:13;;;;;;;6.53;4.33;;;13.60;92.80;;;;;;5093958;28;20875;-60
2022/06/16 03:35:43;;;;;;;6.30;4.60;;;13.60;93.00;;;;;;5081027;28;20532;-61
2022/06/16 03:38:13;;;;;;;6.07;4.20;;;13.60;93.10;;;;;;5073537;28;20500;-61
2022/06/16 03:40:40;;;;;;;5.47;4.10;;;13.60;93.20;;;;;;5073155;28;20450;-61
2022/06/16 03:43:08;;;;;;;4.80;4.10;;;13.60;93.40;;;;;;5073222;28;20966;-60
2022/06/16 03:45:36;;;;;;;4.77;4.30;;;13.60;93.60;;;;;;5073122;28;21030;-61
2022/06/16 03:48:03;;;;;;;5.17;3.63;;;13.60;93.60;;;;;;5073414;28;20480;-61
2022/06/16 03:50:31;;;;;;;4.80;3.83;;;13.60;93.60;;;;;;5073082;28;20981;-60
2022/06/16 03:53:00;;;;;;;4.93;4.27;;;13.60;93.70;;;;;;5073006;28;20449;-61
2022/06/16 03:55:27;;;;;;;5.70;4.83;;;13.60;93.70;;;;;;5072846;28;20476;-60
2022/06/16 03:57:55;;;;;;;4.30;3.90;;;13.50;93.80;;;;;;5072967;28;20446;-60
2022/06/16 04:00:24;;;;;;;8.00;4.30;;;13.60;93.90;;;;;;5072915;28;20929;-62
2022/06/16 04:03:59;;;;;;;5.50;3.70;;;13.60;93.90;;;;;;5072935;28;20450;-61
2022/06/16 04:05:40;;;;;;;5.53;4.67;;;13.60;93.90;;;;;;5072574;28;20584;-60
2022/06/16 04:09:52;;;;;;;6.30;4.97;;;13.70;93.60;;;;;;5111159;27;21086;-61
2022/06/16 04:12:20;;;;;;;5.00;4.60;;;13.80;93.60;;;;;;5110631;28;20497;-60
2022/06/16 04:14:47;;;;;;;6.33;5.20;;;13.80;93.50;;;;;;5110987;28;20900;-61
2022/06/16 04:17:14;;;;;;;4.20;3.70;;;13.90;93.40;;;;;;5110523;28;20975;-60
2022/06/16 04:20:11;;;;;;;7.63;4.20;;;14.00;93.40;;;;;;5111502;28;20445;-60
2022/06/16 04:22:29;;;;;;;8.93;4.53;;;14.00;93.30;;;;;;5110486;28;20818;-61
2022/06/16 04:24:58;;;;;;;6.30;4.57;;;14.10;93.20;;;;;;5110606;28;20995;-61
2022/06/16 04:27:25;;;;;;;5.87;4.40;;;14.10;93.10;;;;;;5110529;28;20449;-60
2022/06/16 04:29:53;;;;;;;5.07;4.47;;;14.20;93.00;;;;;;5110252;28;20529;-60
2022/06/16 04:32:20;;;;;;;4.83;4.33;;;14.30;92.90;;;;;;5110569;28;20475;-60
2022/06/16 04:34:48;;;;;;;7.77;4.90;;;14.40;92.70;;;;;;5110472;28;20544;-60
2022/06/16 04:37:15;;;;;;;9.80;4.43;;;14.40;92.50;;;;;;5110245;28;20816;-60
2022/06/16 04:39:43;;;;;;;8.00;4.53;;;14.40;92.40;;;;;;5111739;28;20438;-60
2022/06/16 04:42:11;;;;;;;5.47;4.50;;;14.50;92.30;;;;;;5111676;28;20442;-61
2022/06/16 04:44:40;;;;;;;6.10;4.73;;;14.50;92.20;;;;;;5110148;28;20489;-61
2022/06/16 04:47:08;;;;;;;5.83;4.40;;;14.50;92.00;;;;;;5110308;28;20456;-61
2022/06/16 04:49:37;;;;;;;4.97;4.10;;;14.60;92.00;;;;;;5109924;28;20473;-60
2022/06/16 04:52:05;;;;;;;5.43;4.30;;;14.70;91.90;;;;;;5110128;28;20552;-60
2022/06/16 04:54:33;;;;;;;5.87;4.57;;;14.80;91.70;;;;;;5110551;28;20462;-60
2022/06/16 04:57:01;;;;;;;5.10;4.60;;;14.80;91.50;;;;;;5110558;28;20437;-61
2022/06/16 04:59:29;;;;;;;6.23;4.23;;;14.90;91.30;;;;;;5110373;28;20438;-61
2022/06/16 05:01:57;;;;;;;8.93;5.40;;;14.90;91.10;;;;;;5110547;28;20449;-61
2022/06/16 05:04:24;;;;;;;9.90;4.73;;;14.90;91.10;;;;;;5109770;28;20499;-62
2022/06/16 05:06:51;;;;;;;7.10;5.27;;;14.90;91.20;;;;;;5109780;28;20495;-62
2022/06/16 05:09:19;;;;;;;7.67;4.20;;;14.90;91.20;;;;;;5098825;28;21058;-61
2022/06/16 05:11:46;;;;;;;8.63;4.50;;;14.90;91.20;;;;;;5099077;28;20467;-61
2022/06/16 05:14:13;;;;;;;4.47;4.07;;;14.90;91.20;;;;;;5105027;28;20461;-61
2022/06/16 05:16:42;;;;;;;6.87;3.63;;;14.90;91.20;;;;;;5106871;28;20478;-60
2022/06/16 05:19:09;;;;;;;7.37;4.57;;;14.90;91.30;;;;;;5098792;28;20478;-62
2022/06/16 05:21:38;;;;;;;6.50;4.77;;;14.80;91.50;;;;;;5075583;28;20447;-61
2022/06/16 05:24:06;;;;;;;5.27;3.90;;;14.80;92.00;;;;;;5088955;28;20526;-63
2022/06/16 05:26:33;;;;;;;6.30;4.37;;;14.80;91.90;;;;;;5096005;28;20882;-61
2022/06/16 05:29:00;;;;;;;11.93;4.63;;;14.80;91.90;;;;;;5095738;28;20473;-62
2022/06/16 05:31:28;;;;;;;4.83;3.93;;;14.80;92.00;;;;;;5095616;28;20486;-62
2022/06/16 05:33:56;;;;;;;7.87;4.70;;;14.80;92.00;;;;;;5081072;28;20466;-61
2022/06/16 05:36:47;;;;;;;7.37;4.23;;;14.80;92.00;;;;;;5077110;28;20474;-61
2022/06/16 05:39:15;;;;;;;5.07;4.57;;;14.80;92.10;;;;;;5073922;28;20447;-61
2022/06/16 05:41:43;;;;;;;6.10;3.90;;;14.90;92.10;;;;;;5076122;28;20446;-59
2022/06/16 05:44:10;;;;;;;5.60;3.77;;;14.80;92.10;;;;;;5075974;28;20509;-62
2022/06/16 05:46:37;;;;;;;6.10;4.07;;;14.80;92.30;;;;;;5093398;28;20458;-61
2022/06/16 05:49:07;;;;;;;8.13;4.20;;;14.80;92.60;;;;;;5096130;28;20553;-62
2022/06/16 05:51:34;;;;;;;5.93;3.70;;;14.80;92.70;;;;;;5099363;28;20450;-61
2022/06/16 05:54:01;;;;;;;7.70;4.40;;;14.80;92.80;;;;;;5095067;28;20509;-61
2022/06/16 05:56:29;;;;;;;4.87;4.37;;;14.80;92.80;;;;;;5080637;28;20482;-62
2022/06/16 05:58:56;;;;;;;6.73;5.37;;;14.90;93.00;;;;;;5085730;28;20489;-61
2022/06/16 06:01:23;;;;;;;5.67;4.03;;;14.80;93.10;;;;;;5085352;28;20513;-61
2022/06/16 06:03:51;;;;;;;5.20;4.67;;;14.90;93.30;;;;;;5081786;28;20943;-61
2022/06/16 06:06:19;;;;;;;8.80;4.23;;;14.90;93.70;;;;;;5082532;28;20556;-61
2022/06/16 06:17:07;;;;;;;4.50;4.07;;;16.40;90.90;;;;;;5074859;28;20413;-62
2022/06/16 06:19:35;;;;;;;6.57;4.00;;;16.50;90.40;;;;;;5078039;28;20995;-61
2022/06/16 06:22:06;;;;;;;8.23;3.87;;;16.60;90.00;;;;;;5083733;28;20445;-61
2022/06/16 06:24:35;;;;;;;6.20;4.13;;;16.60;89.00;;;;;;5084497;28;20465;-62
2022/06/16 06:27:06;;;;;;;7.80;4.17;;;16.50;89.10;;;;;;5095129;28;20988;-60
2022/06/16 06:29:34;;;;;;;6.40;4.93;;;16.50;88.90;;;;;;5095371;28;20486;-61
2022/06/16 06:32:02;;;;;;;9.20;4.60;;;16.50;88.90;;;;;;5092996;28;20540;-61
2022/06/16 06:34:30;;;;;;;8.83;5.03;;;16.70;88.70;;;;;;5097387;28;20445;-63
2022/06/16 06:36:58;;;;;;;4.33;3.93;;;16.80;87.20;;;;;;5095075;28;20499;-61
2022/06/16 06:39:26;;;;;;;6.97;5.00;;;16.90;85.90;;;;;;5095744;28;20445;-62
2022/06/16 06:41:54;;;;;;;4.90;4.40;;;17.00;85.10;;;;;;5094908;28;20506;-62
2022/06/16 06:44:21;;;;;;;6.50;4.40;;;16.90;84.50;;;;;;5093497;28;20611;-62
2022/06/16 06:46:49;;;;;;;6.30;4.80;;;16.90;84.50;;;;;;5095518;28;20448;-61
2022/06/16 06:49:16;;;;;;;5.90;4.03;;;16.90;85.00;;;;;;5097068;28;20481;-62
2022/06/16 06:51:44;;;;;;;6.20;4.10;;;16.90;84.80;;;;;;5097248;28;20541;-60
2022/06/16 06:54:11;;;;;;;6.50;4.00;;;17.10;84.60;;;;;;5093991;28;20458;-61
2022/06/16 06:56:40;;;;;;;6.83;4.23;;;17.30;83.80;;;;;;5094872;28;21010;-61
2022/06/16 06:59:10;;;;;;;6.90;4.50;;;17.50;82.00;;;;;;5094024;28;20452;-61
2022/06/16 07:01:38;;;;;;;6.00;3.80;;;17.70;79.90;;;;;;5094345;28;20836;-60
2022/06/16 07:04:05;;;;;;;8.00;3.80;;;17.80;78.80;;;;;;5093354;28;20454;-61
2022/06/16 07:06:33;;;;;;;6.20;4.17;;;18.00;77.70;;;;;;5093983;28;20837;-60
2022/06/16 07:09:00;;;;;;;8.27;5.00;;;18.10;76.30;;;;;;5093245;28;20482;-65
2022/06/16 07:11:28;;;;;;;6.40;4.10;;;18.20;75.20;;;;;;5093312;28;20532;-63
2022/06/16 07:13:58;;;;;;;5.50;4.03;;;18.20;74.00;;;;;;5094684;28;20446;-64
2022/06/16 07:16:25;;;;;;;6.93;3.70;;;18.30;73.40;;;;;;5095330;28;20516;-65
2022/06/16 07:18:53;;;;;;;4.03;3.63;;;18.50;72.30;;;;;;5094036;28;20484;-63
2022/06/16 07:21:20;;;;;;;7.53;3.77;;;18.60;70.70;;;;;;5094834;28;20499;-63
2022/06/16 07:23:47;;;;;;;3.77;3.40;;;18.70;69.30;;;;;;5094571;28;20446;-63
2022/06/16 07:26:15;;;;;;;3.67;3.30;;;18.70;68.20;;;;;;5093358;28;20865;-65
2022/06/16 07:28:42;;;;;;;4.23;3.63;;;18.70;68.30;;;;;;5094256;28;20455;-64
2022/06/16 07:31:11;;;;;;;6.03;3.73;;;18.70;68.00;;;;;;5093362;28;20446;-65
2022/06/16 07:33:38;;;;;;;5.43;4.07;;;18.70;67.80;;;;;;5093871;28;20503;-65
2022/06/16 07:36:06;;;;;;;4.27;3.80;;;18.70;67.30;;;;;;5094234;28;20524;-65
2022/06/16 07:38:34;;;;;;;7.53;3.50;;;18.80;66.90;;;;;;5098031;28;20450;-63
2022/06/16 07:43:47;;;;;;;5.40;3.63;;;19.00;65.60;;;;;;5094432;28;20460;-66
2022/06/16 07:46:16;;;;;;;3.30;3.00;;;19.20;64.10;;;;;;5093592;28;20550;-64
2022/06/16 07:48:43;;;;;;;3.90;3.00;;;19.30;62.30;;;;;;5094438;28;20439;-66
2022/06/16 07:51:10;;;;;;;4.50;3.63;;;19.30;60.80;;;;;;5094380;28;20442;-65
2022/06/16 07:53:38;;;;;;;4.70;3.10;;;19.40;60.60;;;;;;5093627;28;20461;-62
2022/06/16 07:56:06;;;;;;;4.63;3.63;;;19.40;60.20;;;;;;5093037;28;21025;-61
2022/06/16 07:58:33;;;;;;;5.23;3.20;;;19.60;59.70;;;;;;5094074;28;20927;-61
2022/06/16 08:01:01;;;;;;;3.80;2.80;;;19.70;59.30;;;;;;5093821;28;20931;-60
2022/06/16 08:03:29;;;;;;;4.80;3.20;;;19.80;58.50;;;;;;5093323;28;20439;-60
2022/06/16 08:05:58;;;;;;;4.27;3.10;;;20.00;57.60;;;;;;5092542;28;20478;-61
2022/06/16 08:08:27;;;;;;;5.93;3.43;;;20.20;57.10;;;;;;5093625;28;20461;-61
2022/06/16 08:10:55;;;;;;;4.83;3.60;;;20.40;56.70;;;;;;5098799;28;20534;-61
2022/06/16 08:13:23;;;;;;;8.93;3.37;;;20.70;55.90;;;;;;5098420;28;20454;-60
2022/06/16 08:15:52;;;;;;;4.90;2.90;;;20.80;55.20;;;;;;5097811;28;20518;-60
2022/06/16 08:18:21;;;;;;;4.30;3.20;;;20.70;55.10;;;;;;5095522;28;20466;-59
2022/06/16 08:20:50;;;;;;;5.63;3.10;;;20.70;55.40;;;;;;5093293;28;20491;-59
2022/06/16 08:23:18;;;;;;;4.20;3.03;;;20.70;55.30;;;;;;5092400;28;20520;-59
2022/06/16 08:25:48;;;;;;;6.30;3.30;;;20.70;54.80;;;;;;5093113;28;20467;-59
2022/06/16 08:28:19;;;;;;;4.30;3.07;;;20.70;55.30;;;;;;5095640;28;20491;-59
2022/06/16 08:30:47;;;;;;;3.60;2.93;;;20.80;54.60;;;;;;5093106;28;20516;-59
2022/06/16 08:33:18;;;;;;;3.67;3.00;;;20.90;54.40;;;;;;5091791;28;20504;-60
2022/06/16 08:35:48;;;;;;;4.40;2.93;;;21.00;54.20;;;;;;5091775;28;20978;-59
2022/06/16 08:38:17;;;;;;;5.43;3.40;;;21.00;53.80;;;;;;5092884;28;20443;-59
2022/06/16 08:40:48;;;;;;;6.20;3.20;;;21.00;53.80;;;;;;5092848;28;20522;-57
2022/06/16 08:43:26;;;;;;;6.00;3.30;;;21.00;54.00;;;;;;5093131;28;20496;-59
2022/06/16 08:45:57;;;;;;;5.50;2.93;;;20.90;53.90;;;;;;5072832;28;20503;-59
2022/06/16 08:48:31;;;;;;;4.43;3.37;;;20.90;54.10;;;;;;5074998;28;20486;-59
2022/06/16 08:51:07;;;;;;;4.50;3.30;;;21.00;54.10;;;;;;5073261;28;20468;-59
2022/06/16 08:54:06;;;;;;;5.27;3.20;;;21.10;53.90;;;;;;5089934;28;20987;-58
2022/06/16 08:56:42;;;;;;;4.33;3.57;;;21.10;54.40;;;;;;5096834;28;20466;-60
2022/06/16 08:59:19;;;;;;;6.07;3.20;;;21.10;53.60;;;;;;5097735;28;20478;-59
2022/06/16 09:01:54;;;;;;;4.13;3.60;;;20.90;53.50;;;;;;5095797;28;20441;-59
2022/06/16 09:04:25;;;;;;;5.40;3.30;;;20.80;53.80;;;;;;5096295;28;20454;-58
2022/06/16 09:07:01;;;;;;;5.10;3.13;;;20.70;53.90;;;;;;5096320;28;20431;-58
2022/06/16 09:12:41;;;;;;;5.03;3.20;;;21.10;53.00;;;;;;5095273;28;20587;-58
2022/06/16 09:15:22;;;;;;;3.83;3.03;;;21.10;52.70;;;;;;5096498;28;20538;-58
2022/06/16 09:18:12;;;;;;;4.40;2.80;;;21.30;52.60;;;;;;5096310;28;20454;-58
2022/06/16 09:20:46;;;;;;;3.93;3.53;;;21.60;51.90;;;;;;5085922;28;20441;-60
2022/06/16 09:23:37;;;;;;;3.83;2.70;;;21.80;51.10;;;;;;5096567;28;20835;-60
2022/06/16 09:26:15;;;;;;;5.00;3.00;;;21.90;50.40;;;;;;5082687;28;20470;-60
2022/06/16 09:28:48;;;;;;;4.50;2.90;;;22.00;50.10;;;;;;5092921;28;20527;-60
2022/06/16 09:31:22;;;;;;;4.80;3.30;;;22.00;49.90;;;;;;5095840;28;20934;-60
2022/06/16 09:33:54;;;;;;;5.93;3.67;;;22.10;49.70;;;;;;5102256;28;20470;-59
2022/06/16 09:36:26;;;;;;;3.73;3.00;;;22.30;49.20;;;;;;5094993;28;20569;-59
2022/06/16 09:38:58;;;;;;;4.77;2.93;;;22.50;48.20;;;;;;5096259;28;20497;-59
2022/06/16 09:44:33;;;;;;;4.30;3.13;;;22.70;48.20;;;;;;5095266;28;20553;-59
2022/06/16 09:47:06;;;;;;;3.90;2.80;;;23.10;47.40;;;;;;5096426;28;20829;-59
2022/06/16 09:49:41;;;;;;;5.93;3.20;;;23.40;47.00;;;;;;5094830;28;20563;-58
2022/06/16 09:52:14;;;;;;;4.67;3.00;;;23.50;46.70;;;;;;5095733;28;20430;-59
2022/06/16 09:54:48;;;;;;;3.23;2.60;;;23.40;46.20;;;;;;5095606;28;20527;-58
2022/06/16 09:57:21;;;;;;;4.43;2.50;;;22.90;46.20;;;;;;5094466;28;20507;-60
2022/06/16 09:59:55;;;;;;;3.63;2.80;;;22.50;46.80;;;;;;5095180;28;20431;-58
2022/06/16 10:02:26;;;;;;;4.17;3.03;;;22.60;47.20;;;;;;5095784;28;20431;-58
2022/06/16 10:04:54;;;;;;;2.90;2.70;;;22.70;47.00;;;;;;5095406;28;20498;-58
2022/06/16 10:07:28;;;;;;;4.50;3.03;;;22.90;47.10;;;;;;5094979;28;20519;-59
2022/06/16 10:10:02;;;;;;;4.60;2.90;;;22.90;46.90;;;;;;5094560;28;20473;-58
2022/06/16 10:12:37;;;;;;;10.23;3.00;;;22.70;47.20;;;;;;5095052;28;20433;-59
2022/06/16 10:15:10;;;;;;;4.13;2.40;;;22.50;47.50;;;;;;5095137;28;20880;-59
2022/06/16 10:17:39;;;;;;;4.43;2.63;;;22.50;47.30;;;;;;5094574;28;20438;-58
2022/06/16 10:20:07;;;;;;;4.30;2.47;;;22.60;46.40;;;;;;5094791;28;20546;-59
2022/06/16 10:22:39;;;;;;;3.87;2.53;;;22.70;45.70;;;;;;5094158;28;20454;-58
2022/06/16 10:25:13;;;;;;;3.30;3.00;;;22.90;45.60;;;;;;5095090;28;20474;-58
2022/06/16 10:27:45;;;;;;;3.20;2.37;;;23.10;45.50;;;;;;5095023;28;20597;-56
2022/06/16 10:30:22;;;;;;;2.67;2.07;;;22.90;45.70;;;;;;5094589;28;20473;-58
2022/06/16 10:32:59;;;;;;;2.47;2.10;;;22.60;46.20;;;;;;5094793;28;20484;-61
2022/06/16 10:35:28;;;;;;;4.60;2.33;;;22.60;46.40;;;;;;5093918;28;20480;-61
2022/06/16 10:37:56;;;;;;;4.00;2.73;;;22.70;45.90;;;;;;5095305;28;20552;-61
2022/06/16 10:40:31;;;;;;;4.17;2.70;;;22.70;45.50;;;;;;5094918;28;20449;-61
2022/06/16 10:43:05;;;;;;;3.27;2.47;;;22.80;45.20;;;;;;5094276;28;20449;-62
2022/06/16 10:45:35;;;;;;;5.27;2.53;;;22.80;44.90;;;;;;5093862;28;20562;-62
2022/06/16 10:48:06;;;;;;;4.07;2.00;;;22.90;45.00;;;;;;5095963;28;20450;-60
2022/06/16 10:50:38;;;;;;;3.60;2.20;;;23.00;45.00;;;;;;5095965;28;20977;-62
2022/06/16 10:53:11;;;;;;;6.00;2.43;;;23.10;44.70;;;;;;5096494;28;20438;-61
2022/06/16 10:55:44;;;;;;;6.03;2.30;;;23.20;44.40;;;;;;5097491;28;20969;-61
2022/06/16 10:58:20;;;;;;;4.27;2.10;;;23.30;43.70;;;;;;5097719;28;20525;-61
2022/06/16 11:01:07;;;;;;;2.73;2.00;;;23.30;43.50;;;;;;5096221;28;20473;-61
2022/06/16 11:03:37;;;;;;;3.10;2.33;;;23.30;43.60;;;;;;5094692;28;20426;-62
2022/06/16 11:06:07;;;;;;;2.83;1.90;;;23.30;43.60;;;;;;5094751;28;20466;-61
2022/06/16 11:08:40;;;;;;;2.50;1.93;;;23.40;42.90;;;;;;5093120;28;20545;-61
2022/06/16 11:11:09;;;;;;;1.97;1.80;;;23.30;42.00;;;;;;5093939;28;20474;-62
2022/06/16 11:13:44;;;;;;;2.70;1.53;;;23.40;41.90;;;;;;5093328;28;20442;-61
2022/06/16 11:16:23;;;;;;;1.90;1.50;;;23.50;41.30;;;;;;5094168;28;20465;-62
2022/06/16 11:18:54;;;;;;;2.10;1.80;;;23.50;40.50;;;;;;5097768;28;20433;-62
2022/06/16 11:21:25;;;;;;;2.00;1.50;;;23.40;39.50;;;;;;5094047;28;20484;-63
2022/06/16 11:23:55;;;;;;;2.07;1.07;;;23.40;38.40;;;;;;5092611;28;20441;-61
2022/06/16 11:26:27;;;;;;;1.30;1.10;;;23.30;37.80;;;;;;5093446;28;20652;-63
2022/06/16 11:29:01;;;;;;;2.90;1.50;;;23.40;37.70;;;;;;5094002;28;20429;-60
2022/06/16 11:31:39;;;;;;;2.53;1.40;;;23.40;37.70;;;;;;5090340;22;21006;-61
2022/06/16 11:34:10;;;;;;;1.73;1.33;;;23.50;37.70;;;;;;5054332;28;20436;-61
2022/06/16 11:37:22;;;;;;;1.60;1.20;;;23.60;38.10;;;;;;5053986;28;20482;-61
2022/06/16 11:40:04;;;;;;;3.03;1.50;;;23.70;38.20;;;;;;5027559;28;20547;-62
2022/06/16 11:43:00;;;;;;;5.10;1.63;;;23.70;38.20;;;;;;5053333;28;20510;-61
2022/06/16 11:45:35;;;;;;;2.03;1.30;;;23.90;38.20;;;;;;5053245;28;20920;-61
2022/06/16 11:48:12;;;;;;;2.53;1.40;;;23.80;38.10;;;;;;5052857;28;20432;-60
2022/06/16 11:50:48;;;;;;;2.53;1.40;;;23.80;37.60;;;;;;5016748;28;21004;-60
2022/06/16 11:53:31;;;;;;;2.50;1.33;;;23.80;37.10;;;;;;5014498;28;20499;-62
2022/06/16 11:56:02;;;;;;;2.30;1.10;;;23.90;36.70;;;;;;5013672;28;20910;-61
2022/06/16 11:58:52;;;;;;;4.43;1.50;;;24.30;36.30;;;;;;5051261;28;20447;-61
2022/06/16 12:01:28;;;;;;;1.63;1.00;;;24.90;35.40;;;;;;5053199;28;20510;-63
2022/06/16 12:04:24;;;;;;;1.60;1.10;;;25.40;34.50;;;;;;5053172;28;20431;-61
2022/06/16 12:07:20;;;;;;;2.93;1.00;;;25.70;33.90;;;;;;5052839;28;20808;-61
2022/06/16 12:09:58;;;;;;;3.03;1.43;;;25.80;33.30;;;;;;5052564;28;20446;-62
2022/06/16 12:12:32;;;;;;;2.50;1.50;;;25.90;33.10;;;;;;5053092;28;20424;-60
2022/06/16 12:15:08;;;;;;;2.77;0.87;;;26.00;33.10;;;;;;5051794;28;20879;-61
2022/06/16 12:17:43;;;;;;;1.67;1.17;;;26.30;32.80;;;;;;5051827;28;20523;-61
2022/06/16 12:20:16;;;;;;;3.73;1.03;;;26.30;32.10;;;;;;5052900;28;20497;-61
2022/06/16 12:22:50;;;;;;;2.40;1.23;;;26.20;31.70;;;;;;5052899;28;20459;-60
2022/06/16 12:25:24;;;;;;;2.10;1.67;;;26.20;31.60;;;;;;5042775;28;20443;-61
2022/06/16 12:27:57;;;;;;;2.13;1.13;;;26.20;31.50;;;;;;5052462;28;20479;-61
2022/06/16 12:30:33;;;;;;;4.10;1.40;;;26.50;31.40;;;;;;5054484;28;20479;-62
2022/06/16 12:33:10;;;;;;;2.07;1.17;;;26.80;31.30;;;;;;5056449;28;20485;-63
2022/06/16 12:35:42;;;;;;;5.37;1.73;;;27.10;31.40;;;;;;5056710;28;20844;-60
2022/06/16 12:38:17;;;;;;;1.93;1.00;;;27.20;30.90;;;;;;5056746;28;20439;-60
2022/06/16 12:40:48;;;;;;;2.37;0.97;;;27.00;31.00;;;;;;5056249;28;20459;-61
2022/06/16 12:43:19;;;;;;;1.50;1.00;;;26.70;31.40;;;;;;5055849;28;20981;-61
2022/06/16 12:45:52;;;;;;;2.50;1.13;;;26.30;31.90;;;;;;5056289;28;20995;-61
2022/06/16 12:48:27;;;;;;;3.00;1.27;;;25.80;32.60;;;;;;5039065;28;20468;-62
2022/06/16 12:50:56;;;;;;;1.43;1.00;;;25.30;33.30;;;;;;5036428;28;20543;-60
2022/06/16 12:53:30;;;;;;;1.93;1.00;;;25.00;33.60;;;;;;5036376;28;20444;-62
2022/06/16 12:56:03;;;;;;;2.10;1.23;;;24.80;34.10;;;;;;5049834;28;20439;-60
2022/06/16 12:58:34;;;;;;;2.70;1.10;;;24.70;34.60;;;;;;5056131;28;20799;-60
2022/06/16 13:01:05;;;;;;;4.60;1.40;;;24.60;34.80;;;;;;5052003;28;20537;-59
2022/06/16 13:03:42;;;;;;;2.40;1.03;;;24.50;35.00;;;;;;5055868;28;20435;-60
2022/06/16 13:06:10;;;;;;;7.67;1.37;;;24.50;35.10;;;;;;5061097;28;20432;-66
2022/06/16 13:08:42;;;;;;;1.40;1.13;;;24.60;35.00;;;;;;5058847;28;20456;-61
2022/06/16 13:11:16;;;;;;;2.47;1.00;;;24.70;34.80;;;;;;5056418;28;20534;-62
2022/06/16 13:13:46;;;;;;;3.53;1.00;;;24.70;34.70;;;;;;5056650;28;20432;-61
2022/06/16 13:16:18;;;;;;;1.80;0.87;;;24.80;34.60;;;;;;5039975;28;20498;-60
2022/06/16 13:18:53;;;;;;;2.77;1.37;;;24.90;35.10;;;;;;5037872;28;20440;-60
2022/06/16 13:21:24;;;;;;;2.93;1.13;;;24.80;34.40;;;;;;5037082;28;20457;-62
2022/06/16 13:24:03;;;;;;;1.60;1.10;;;24.80;34.20;;;;;;5035627;28;20463;-62
2022/06/16 20:07:38;;;;;;;3.23;2.70;;;19.10;45.40;;;;;;5112373;27;20598;-60
2022/06/16 20:10:07;;;;;;;4.73;3.07;;;18.90;46.10;;;;;;5106208;28;20948;-61
2022/06/16 20:12:35;;;;;;;4.60;2.60;;;18.90;47.20;;;;;;5092334;28;20465;-61
2022/06/16 20:15:02;;;;;;;6.77;2.70;;;18.80;46.90;;;;;;5102147;28;20472;-61
2022/06/16 20:17:29;;;;;;;2.60;2.40;;;18.80;47.20;;;;;;5104370;28;21017;-60